CCA1294 ZWWW-ZBAA
Flight info
| Callsign | CCA1294 |
|---|---|
| Flight time | 2h 56m |
| Altitude | 35100 |
| Route | WUR W190 ADPET W188 LIKMI W270 DKO W69 GUVBA |
| Aircraft | B77W/H-SDE1E2E3FGHIJ2J3J4J5M1RWXY/LB1D1 |
Departure
| Time | 2026-04-22 11:44 |
|---|---|
| Airport | Ürümqi Tianshan International Airport (ZWWW) |
Arrival
| Time | 2026-04-22 14:40 |
|---|---|
| Airport | Beijing Capital International Airport (ZBAA) |
| Time | Latitude | Longitude | Altitude | Speed | Heading |
|---|---|---|---|---|---|
| 2026-04-22 10:58 | 43.92007 | 87.47443 | 2146 ft | 0 kts | 162° |
| 2026-04-22 11:29 | 43.92009 | 87.47443 | 2146 ft | 2 kts | 162° |
| 2026-04-22 11:29 | 43.92022 | 87.47437 | 2146 ft | 0 kts | 162° |
| 2026-04-22 11:29 | 43.92031 | 87.47433 | 2146 ft | 2 kts | 162° |
| 2026-04-22 11:29 | 43.92045 | 87.47427 | 2146 ft | 2 kts | 162° |
| 2026-04-22 11:30 | 43.92059 | 87.47422 | 2146 ft | 2 kts | 185° |
| 2026-04-22 11:30 | 43.92074 | 87.47427 | 2146 ft | 2 kts | 208° |
| 2026-04-22 11:30 | 43.92086 | 87.47440 | 2146 ft | 2 kts | 229° |
| 2026-04-22 11:30 | 43.92093 | 87.47457 | 2146 ft | 2 kts | 251° |
| 2026-04-22 11:31 | 43.92097 | 87.47477 | 2146 ft | 2 kts | 257° |
| 2026-04-22 11:31 | 43.92101 | 87.47498 | 2146 ft | 2 kts | 254° |
| 2026-04-22 11:31 | 43.92104 | 87.47512 | 2146 ft | 0 kts | 253° |
| 2026-04-22 11:37 | 43.92104 | 87.47511 | 2146 ft | 0 kts | 253° |
| 2026-04-22 11:38 | 43.92101 | 87.47501 | 2146 ft | 2 kts | 253° |
| 2026-04-22 11:38 | 43.92093 | 87.47465 | 2146 ft | 6 kts | 253° |
| 2026-04-22 11:38 | 43.92050 | 87.47261 | 2146 ft | 15 kts | 254° |
| 2026-04-22 11:39 | 43.92017 | 87.47102 | 2146 ft | 18 kts | 253° |
| 2026-04-22 11:39 | 43.91976 | 87.46912 | 2147 ft | 22 kts | 254° |
| 2026-04-22 11:39 | 43.91929 | 87.46696 | 2147 ft | 25 kts | 256° |
| 2026-04-22 11:39 | 43.91878 | 87.46447 | 2147 ft | 28 kts | 253° |
| 2026-04-22 11:40 | 43.91818 | 87.46176 | 2147 ft | 30 kts | 253° |
| 2026-04-22 11:40 | 43.91771 | 87.45940 | 2147 ft | 22 kts | 252° |
| 2026-04-22 11:40 | 43.91726 | 87.45742 | 2147 ft | 20 kts | 254° |
| 2026-04-22 11:40 | 43.91689 | 87.45564 | 2147 ft | 18 kts | 252° |
| 2026-04-22 11:41 | 43.91653 | 87.45407 | 2147 ft | 16 kts | 253° |
| 2026-04-22 11:41 | 43.91633 | 87.45267 | 2147 ft | 13 kts | 285° |
| 2026-04-22 11:41 | 43.91703 | 87.45207 | 2147 ft | 11 kts | 343° |
| 2026-04-22 11:41 | 43.91777 | 87.45176 | 2147 ft | 10 kts | 343° |
| 2026-04-22 11:42 | 43.91842 | 87.45150 | 2147 ft | 9 kts | 344° |
| 2026-04-22 11:42 | 43.91898 | 87.45128 | 2147 ft | 7 kts | 351° |
| 2026-04-22 11:42 | 43.91945 | 87.45139 | 2147 ft | 6 kts | 34° |
| 2026-04-22 11:42 | 43.91961 | 87.45185 | 2147 ft | 5 kts | 74° |
| 2026-04-22 11:43 | 43.91970 | 87.45229 | 2147 ft | 4 kts | 73° |
| 2026-04-22 11:43 | 43.91988 | 87.45313 | 2147 ft | 24 kts | 74° |
| 2026-04-22 11:43 | 43.92110 | 87.45886 | 2146 ft | 98 kts | 73° |
| 2026-04-22 11:43 | 43.92368 | 87.47105 | 2147 ft | 162 kts | 73° |
| 2026-04-22 11:44 | 43.92724 | 87.48765 | 2443 ft | 192 kts | 70° |
| 2026-04-22 11:44 | 43.93185 | 87.50433 | 3286 ft | 188 kts | 67° |
| 2026-04-22 11:44 | 43.93642 | 87.52113 | 3951 ft | 192 kts | 69° |
| 2026-04-22 11:44 | 43.94072 | 87.53955 | 4404 ft | 209 kts | 71° |
| 2026-04-22 11:45 | 43.94534 | 87.55930 | 4910 ft | 225 kts | 70° |
| 2026-04-22 11:45 | 43.95040 | 87.58054 | 5443 ft | 242 kts | 70° |
| 2026-04-22 11:45 | 43.95729 | 87.60195 | 6106 ft | 250 kts | 51° |
| 2026-04-22 11:45 | 43.97036 | 87.61736 | 6878 ft | 253 kts | 24° |
| 2026-04-22 11:46 | 43.98723 | 87.62256 | 7678 ft | 253 kts | 356° |
| 2026-04-22 11:46 | 44.00456 | 87.61825 | 8528 ft | 254 kts | 345° |
| 2026-04-22 11:46 | 44.02130 | 87.61233 | 9436 ft | 252 kts | 344° |
| 2026-04-22 11:46 | 44.03811 | 87.60628 | 10242 ft | 254 kts | 343° |
| 2026-04-22 11:47 | 44.05542 | 87.60006 | 11016 ft | 257 kts | 343° |
| 2026-04-22 11:47 | 44.07259 | 87.59387 | 11831 ft | 258 kts | 342° |
| 2026-04-22 11:47 | 44.08993 | 87.58762 | 12602 ft | 261 kts | 342° |
| 2026-04-22 11:47 | 44.10735 | 87.58163 | 13371 ft | 264 kts | 348° |
| 2026-04-22 11:48 | 44.12593 | 87.58282 | 14053 ft | 276 kts | 9° |
| 2026-04-22 11:48 | 44.14471 | 87.59088 | 14487 ft | 294 kts | 14° |
| 2026-04-22 11:48 | 44.16459 | 87.60084 | 14905 ft | 311 kts | 15° |
| 2026-04-22 11:48 | 44.18540 | 87.61124 | 15369 ft | 326 kts | 14° |
| 2026-04-22 11:49 | 44.20717 | 87.62202 | 15859 ft | 341 kts | 14° |
| 2026-04-22 11:49 | 44.22992 | 87.63322 | 16343 ft | 355 kts | 15° |
| 2026-04-22 11:49 | 44.25359 | 87.64487 | 16845 ft | 370 kts | 15° |
| 2026-04-22 11:49 | 44.27822 | 87.65701 | 17327 ft | 385 kts | 15° |
| 2026-04-22 11:50 | 44.30418 | 87.66985 | 17799 ft | 400 kts | 17° |
| 2026-04-22 11:50 | 44.32991 | 87.68643 | 18305 ft | 418 kts | 26° |
| 2026-04-22 11:50 | 44.35413 | 87.70991 | 19027 ft | 431 kts | 36° |
| 2026-04-22 11:50 | 44.37656 | 87.73775 | 19938 ft | 434 kts | 38° |
| 2026-04-22 11:51 | 44.39883 | 87.76614 | 20808 ft | 437 kts | 38° |
| 2026-04-22 11:51 | 44.42110 | 87.79456 | 21582 ft | 442 kts | 38° |
| 2026-04-22 11:51 | 44.44384 | 87.82356 | 22341 ft | 447 kts | 38° |
| 2026-04-22 11:51 | 44.46711 | 87.85325 | 23063 ft | 452 kts | 38° |
| 2026-04-22 11:52 | 44.49013 | 87.88262 | 23774 ft | 457 kts | 38° |
| 2026-04-22 11:52 | 44.51274 | 87.91441 | 24488 ft | 465 kts | 45° |
| 2026-04-22 11:52 | 44.53191 | 87.95090 | 25125 ft | 475 kts | 53° |
| 2026-04-22 11:52 | 44.54731 | 87.99251 | 25745 ft | 486 kts | 63° |
| 2026-04-22 11:53 | 44.55799 | 88.03744 | 26323 ft | 497 kts | 72° |
| 2026-04-22 11:53 | 44.56362 | 88.08585 | 26881 ft | 508 kts | 82° |
| 2026-04-22 11:53 | 44.56349 | 88.13567 | 27424 ft | 519 kts | 91° |
| 2026-04-22 11:53 | 44.55907 | 88.18560 | 27966 ft | 526 kts | 94° |
| 2026-04-22 11:54 | 44.55393 | 88.23669 | 28500 ft | 531 kts | 94° |
| 2026-04-22 11:54 | 44.54897 | 88.28785 | 29016 ft | 536 kts | 94° |
| 2026-04-22 11:54 | 44.54407 | 88.33928 | 29613 ft | 538 kts | 93° |
| 2026-04-22 11:54 | 44.53915 | 88.39130 | 30393 ft | 536 kts | 93° |
| 2026-04-22 11:55 | 44.53436 | 88.44228 | 31184 ft | 533 kts | 93° |
| 2026-04-22 11:55 | 44.52956 | 88.49354 | 31921 ft | 530 kts | 93° |
| 2026-04-22 11:55 | 44.52485 | 88.54469 | 32555 ft | 529 kts | 92° |
| 2026-04-22 11:55 | 44.52031 | 88.59593 | 33139 ft | 528 kts | 92° |
| 2026-04-22 11:56 | 44.51581 | 88.64677 | 33678 ft | 528 kts | 92° |
| 2026-04-22 11:56 | 44.51125 | 88.69807 | 34149 ft | 528 kts | 93° |
| 2026-04-22 11:56 | 44.50670 | 88.74923 | 34527 ft | 530 kts | 93° |
| 2026-04-22 11:56 | 44.50219 | 88.79961 | 34910 ft | 530 kts | 93° |
| 2026-04-22 11:57 | 44.49754 | 88.85133 | 35044 ft | 533 kts | 93° |
| 2026-04-22 11:57 | 44.49293 | 88.90234 | 35048 ft | 530 kts | 93° |
| 2026-04-22 11:57 | 44.48366 | 89.00407 | 35062 ft | 527 kts | 93° |
| 2026-04-22 11:58 | 44.47427 | 89.10592 | 35060 ft | 527 kts | 94° |
| 2026-04-22 11:58 | 44.46474 | 89.20679 | 35065 ft | 528 kts | 94° |
| 2026-04-22 11:59 | 44.45506 | 89.30817 | 35064 ft | 527 kts | 94° |
| 2026-04-22 11:59 | 44.44532 | 89.40936 | 35070 ft | 528 kts | 94° |
| 2026-04-22 12:00 | 44.43547 | 89.51069 | 35068 ft | 526 kts | 94° |
| 2026-04-22 12:00 | 44.42551 | 89.61217 | 35058 ft | 525 kts | 94° |
| 2026-04-22 12:01 | 44.41315 | 89.71236 | 35067 ft | 531 kts | 103° |
| 2026-04-22 12:01 | 44.39204 | 89.81180 | 35062 ft | 532 kts | 104° |
| 2026-04-22 12:02 | 44.37071 | 89.90990 | 35068 ft | 531 kts | 104° |
| 2026-04-22 12:02 | 44.34920 | 90.00846 | 35085 ft | 530 kts | 105° |
| 2026-04-22 12:03 | 44.32774 | 90.10645 | 35084 ft | 531 kts | 105° |
| 2026-04-22 12:03 | 44.30606 | 90.20493 | 35097 ft | 531 kts | 105° |
| 2026-04-22 12:04 | 44.28443 | 90.30281 | 35092 ft | 529 kts | 105° |
| 2026-04-22 12:04 | 44.26270 | 90.40070 | 35107 ft | 528 kts | 105° |
| 2026-04-22 12:05 | 44.24107 | 90.49770 | 35143 ft | 528 kts | 106° |
| 2026-04-22 12:05 | 44.21933 | 90.59473 | 35118 ft | 525 kts | 106° |
| 2026-04-22 12:06 | 44.19756 | 90.69148 | 35116 ft | 525 kts | 107° |
| 2026-04-22 12:06 | 44.17577 | 90.78785 | 35125 ft | 522 kts | 107° |
| 2026-04-22 12:07 | 44.15393 | 90.88406 | 35110 ft | 520 kts | 107° |
| 2026-04-22 12:07 | 44.13216 | 90.97955 | 35099 ft | 518 kts | 107° |
| 2026-04-22 12:08 | 44.11050 | 91.07414 | 35117 ft | 519 kts | 107° |
| 2026-04-22 12:08 | 44.08856 | 91.16959 | 35125 ft | 518 kts | 107° |
| 2026-04-22 12:09 | 44.06668 | 91.26443 | 35117 ft | 519 kts | 107° |
| 2026-04-22 12:09 | 44.04458 | 91.35979 | 35149 ft | 518 kts | 108° |
| 2026-04-22 12:10 | 44.02239 | 91.45493 | 35153 ft | 519 kts | 108° |
| 2026-04-22 12:10 | 43.99999 | 91.54974 | 35170 ft | 517 kts | 108° |
| 2026-04-22 12:11 | 43.97755 | 91.64433 | 35174 ft | 517 kts | 108° |
| 2026-04-22 12:11 | 43.95518 | 91.73826 | 35154 ft | 516 kts | 109° |
| 2026-04-22 12:12 | 43.93254 | 91.83292 | 35158 ft | 516 kts | 109° |
| 2026-04-22 12:12 | 43.91014 | 91.92619 | 35150 ft | 514 kts | 109° |
| 2026-04-22 12:13 | 43.88747 | 92.02021 | 35168 ft | 517 kts | 109° |
| 2026-04-22 12:13 | 43.86467 | 92.11438 | 35170 ft | 513 kts | 109° |
| 2026-04-22 12:14 | 43.84185 | 92.20824 | 35153 ft | 521 kts | 109° |
| 2026-04-22 12:14 | 43.81868 | 92.30312 | 35181 ft | 527 kts | 109° |
| 2026-04-22 12:15 | 43.79525 | 92.39872 | 35166 ft | 522 kts | 109° |
| 2026-04-22 12:15 | 43.77192 | 92.49346 | 35167 ft | 524 kts | 110° |
| 2026-04-22 12:16 | 43.74845 | 92.58842 | 35178 ft | 522 kts | 110° |
| 2026-04-22 12:16 | 43.72499 | 92.68295 | 35167 ft | 520 kts | 110° |
| 2026-04-22 12:17 | 43.70166 | 92.77654 | 35130 ft | 519 kts | 110° |
| 2026-04-22 12:17 | 43.67809 | 92.87071 | 35138 ft | 517 kts | 111° |
| 2026-04-22 12:18 | 43.65468 | 92.96390 | 35146 ft | 516 kts | 111° |
| 2026-04-22 12:18 | 43.63183 | 93.05740 | 35128 ft | 515 kts | 110° |
| 2026-04-22 12:19 | 43.60968 | 93.15048 | 35127 ft | 516 kts | 110° |
| 2026-04-22 12:19 | 43.58718 | 93.24444 | 35138 ft | 515 kts | 110° |
| 2026-04-22 12:20 | 43.56473 | 93.33772 | 35140 ft | 516 kts | 110° |
| 2026-04-22 12:20 | 43.54207 | 93.43139 | 35143 ft | 517 kts | 110° |
| 2026-04-22 12:21 | 43.51939 | 93.52469 | 35134 ft | 515 kts | 110° |
| 2026-04-22 12:21 | 43.49661 | 93.61801 | 35140 ft | 519 kts | 110° |
| 2026-04-22 12:22 | 43.47371 | 93.71149 | 35141 ft | 514 kts | 110° |
| 2026-04-22 12:22 | 43.45082 | 93.80450 | 35143 ft | 517 kts | 110° |
| 2026-04-22 12:23 | 43.42780 | 93.89764 | 35152 ft | 515 kts | 110° |
| 2026-04-22 12:23 | 43.40461 | 93.99112 | 35157 ft | 517 kts | 110° |
| 2026-04-22 12:24 | 43.38146 | 94.08402 | 35151 ft | 516 kts | 110° |
| 2026-04-22 12:24 | 43.35818 | 94.17710 | 35161 ft | 517 kts | 110° |
| 2026-04-22 12:25 | 43.33481 | 94.27018 | 35161 ft | 516 kts | 110° |
| 2026-04-22 12:25 | 43.31134 | 94.36327 | 35168 ft | 518 kts | 110° |
| 2026-04-22 12:26 | 43.28795 | 94.45567 | 35159 ft | 517 kts | 110° |
| 2026-04-22 12:26 | 43.26436 | 94.54850 | 35152 ft | 517 kts | 110° |
| 2026-04-22 12:27 | 43.24048 | 94.64208 | 35134 ft | 519 kts | 110° |
| 2026-04-22 12:27 | 43.21682 | 94.73444 | 35143 ft | 519 kts | 111° |
| 2026-04-22 12:28 | 43.19270 | 94.82822 | 35151 ft | 518 kts | 111° |
| 2026-04-22 12:28 | 43.16872 | 94.92110 | 35140 ft | 520 kts | 111° |
| 2026-04-22 12:29 | 43.14319 | 95.01300 | 35157 ft | 517 kts | 118° |
| 2026-04-22 12:29 | 43.10273 | 95.09355 | 35148 ft | 513 kts | 136° |
| 2026-04-22 12:30 | 43.04852 | 95.15483 | 35162 ft | 509 kts | 147° |
| 2026-04-22 12:30 | 43.01969 | 95.18274 | 35148 ft | 508 kts | 147° |
| 2026-04-22 12:31 | 42.96170 | 95.23794 | 35161 ft | 509 kts | 147° |
| 2026-04-22 12:31 | 42.90351 | 95.29264 | 35161 ft | 507 kts | 148° |
| 2026-04-22 12:32 | 42.84520 | 95.34701 | 35154 ft | 510 kts | 148° |
| 2026-04-22 12:32 | 42.75764 | 95.42815 | 35142 ft | 510 kts | 148° |
| 2026-04-22 12:33 | 42.69887 | 95.48236 | 35139 ft | 511 kts | 147° |
| 2026-04-22 12:33 | 42.64044 | 95.53608 | 35140 ft | 510 kts | 147° |
| 2026-04-22 12:34 | 42.58145 | 95.59018 | 35137 ft | 511 kts | 147° |
| 2026-04-22 12:34 | 42.52278 | 95.64384 | 35136 ft | 511 kts | 147° |
| 2026-04-22 12:35 | 42.46502 | 95.69956 | 35131 ft | 513 kts | 140° |
| 2026-04-22 12:35 | 42.41868 | 95.77316 | 35136 ft | 516 kts | 122° |
| 2026-04-22 12:36 | 42.39018 | 95.86113 | 35161 ft | 516 kts | 105° |
| 2026-04-22 12:36 | 42.38079 | 95.95709 | 35167 ft | 514 kts | 90° |
| 2026-04-22 12:37 | 42.37916 | 96.05351 | 35173 ft | 515 kts | 90° |
| 2026-04-22 12:37 | 42.37709 | 96.14967 | 35172 ft | 515 kts | 90° |
| 2026-04-22 12:38 | 42.37463 | 96.24603 | 35173 ft | 513 kts | 91° |
| 2026-04-22 12:38 | 42.37192 | 96.34231 | 35173 ft | 515 kts | 91° |
| 2026-04-22 12:39 | 42.36757 | 96.48640 | 35173 ft | 515 kts | 91° |
| 2026-04-22 12:40 | 42.36449 | 96.58315 | 35160 ft | 515 kts | 90° |
| 2026-04-22 12:40 | 42.36134 | 96.67912 | 35156 ft | 514 kts | 91° |
| 2026-04-22 12:41 | 42.35810 | 96.77506 | 35151 ft | 513 kts | 91° |
| 2026-04-22 12:41 | 42.35477 | 96.87106 | 35152 ft | 514 kts | 91° |
| 2026-04-22 12:42 | 42.35136 | 96.96687 | 35161 ft | 512 kts | 91° |
| 2026-04-22 12:42 | 42.34786 | 97.06309 | 35150 ft | 513 kts | 91° |
| 2026-04-22 12:43 | 42.34428 | 97.15918 | 35145 ft | 513 kts | 91° |
| 2026-04-22 12:43 | 42.34062 | 97.25524 | 35145 ft | 513 kts | 91° |
| 2026-04-22 12:44 | 42.33690 | 97.35084 | 35139 ft | 513 kts | 90° |
| 2026-04-22 12:44 | 42.33309 | 97.44657 | 35148 ft | 513 kts | 90° |
| 2026-04-22 12:45 | 42.32919 | 97.54269 | 35144 ft | 513 kts | 90° |
| 2026-04-22 12:45 | 42.32519 | 97.63901 | 35143 ft | 514 kts | 90° |
| 2026-04-22 12:46 | 42.32115 | 97.73456 | 35135 ft | 514 kts | 91° |
| 2026-04-22 12:46 | 42.31700 | 97.83079 | 35137 ft | 514 kts | 91° |
| 2026-04-22 12:47 | 42.31276 | 97.92708 | 35134 ft | 514 kts | 91° |
| 2026-04-22 12:47 | 42.30845 | 98.02323 | 35131 ft | 515 kts | 91° |
| 2026-04-22 12:48 | 42.30405 | 98.11969 | 35124 ft | 515 kts | 91° |
| 2026-04-22 12:48 | 42.29961 | 98.21509 | 35119 ft | 513 kts | 90° |
| 2026-04-22 12:49 | 42.29508 | 98.31072 | 35112 ft | 513 kts | 90° |
| 2026-04-22 12:49 | 42.29024 | 98.40717 | 35105 ft | 513 kts | 91° |
| 2026-04-22 12:50 | 42.28532 | 98.50227 | 35099 ft | 514 kts | 90° |
| 2026-04-22 12:50 | 42.28027 | 98.59860 | 35096 ft | 514 kts | 90° |
| 2026-04-22 12:51 | 42.27517 | 98.69443 | 35088 ft | 515 kts | 91° |
| 2026-04-22 12:51 | 42.27000 | 98.79015 | 35087 ft | 513 kts | 91° |
| 2026-04-22 12:52 | 42.26473 | 98.88605 | 35088 ft | 512 kts | 91° |
| 2026-04-22 12:52 | 42.25942 | 98.98144 | 35086 ft | 512 kts | 91° |
| 2026-04-22 12:53 | 42.25404 | 99.07662 | 35080 ft | 513 kts | 91° |
| 2026-04-22 12:53 | 42.24854 | 99.17239 | 35068 ft | 513 kts | 91° |
| 2026-04-22 12:54 | 42.24295 | 99.26842 | 35061 ft | 514 kts | 91° |
| 2026-04-22 12:54 | 42.23730 | 99.36401 | 35062 ft | 513 kts | 91° |
| 2026-04-22 12:55 | 42.23255 | 99.44351 | 35067 ft | 512 kts | 91° |
| 2026-04-22 12:55 | 42.22581 | 99.55456 | 35070 ft | 512 kts | 90° |
| 2026-04-22 12:56 | 42.21997 | 99.64947 | 35065 ft | 511 kts | 90° |
| 2026-04-22 12:56 | 42.21398 | 99.74547 | 35051 ft | 512 kts | 91° |
| 2026-04-22 12:57 | 42.20795 | 99.84080 | 35045 ft | 512 kts | 91° |
| 2026-04-22 12:57 | 42.20187 | 99.93559 | 35039 ft | 511 kts | 91° |
| 2026-04-22 12:58 | 42.19568 | 100.03088 | 35033 ft | 512 kts | 91° |
| 2026-04-22 12:58 | 42.18942 | 100.12605 | 35026 ft | 511 kts | 91° |
| 2026-04-22 12:59 | 42.18308 | 100.22124 | 35029 ft | 511 kts | 91° |
| 2026-04-22 12:59 | 42.17665 | 100.31656 | 35037 ft | 512 kts | 91° |
| 2026-04-22 13:00 | 42.17017 | 100.41143 | 35037 ft | 512 kts | 91° |
| 2026-04-22 13:00 | 42.16357 | 100.50688 | 35039 ft | 512 kts | 91° |
| 2026-04-22 13:01 | 42.15689 | 100.60226 | 35045 ft | 512 kts | 91° |
| 2026-04-22 13:01 | 42.15016 | 100.69740 | 35038 ft | 511 kts | 92° |
| 2026-04-22 13:02 | 42.14334 | 100.79248 | 35042 ft | 513 kts | 92° |
| 2026-04-22 13:02 | 42.13644 | 100.88769 | 35047 ft | 513 kts | 92° |
| 2026-04-22 13:03 | 42.12949 | 100.98254 | 35045 ft | 512 kts | 92° |
| 2026-04-22 13:03 | 42.11534 | 101.07662 | 35050 ft | 519 kts | 105° |
| 2026-04-22 13:04 | 42.09201 | 101.16821 | 35047 ft | 519 kts | 106° |
| 2026-04-22 13:04 | 42.06821 | 101.25963 | 35050 ft | 519 kts | 106° |
| 2026-04-22 13:05 | 42.04424 | 101.35111 | 35050 ft | 519 kts | 106° |
| 2026-04-22 13:05 | 42.02008 | 101.44278 | 35048 ft | 519 kts | 106° |
| 2026-04-22 13:06 | 41.99603 | 101.53359 | 35046 ft | 519 kts | 106° |
| 2026-04-22 13:06 | 41.97190 | 101.62432 | 35047 ft | 518 kts | 106° |
| 2026-04-22 13:07 | 41.94766 | 101.71511 | 35046 ft | 520 kts | 107° |
| 2026-04-22 13:07 | 41.92313 | 101.80662 | 35052 ft | 519 kts | 107° |
| 2026-04-22 13:08 | 41.89875 | 101.89725 | 35060 ft | 518 kts | 107° |
| 2026-04-22 13:08 | 41.87439 | 101.98743 | 35053 ft | 517 kts | 107° |
| 2026-04-22 13:09 | 41.84983 | 102.07806 | 35061 ft | 517 kts | 107° |
| 2026-04-22 13:09 | 41.82532 | 102.16815 | 35063 ft | 517 kts | 107° |
| 2026-04-22 13:10 | 41.80066 | 102.25844 | 35062 ft | 518 kts | 107° |
| 2026-04-22 13:10 | 41.77600 | 102.34841 | 35061 ft | 517 kts | 107° |
| 2026-04-22 13:11 | 41.75122 | 102.43851 | 35060 ft | 516 kts | 107° |
| 2026-04-22 13:11 | 41.72639 | 102.52848 | 35064 ft | 516 kts | 107° |
| 2026-04-22 13:12 | 41.70147 | 102.61844 | 35070 ft | 516 kts | 107° |
| 2026-04-22 13:12 | 41.67660 | 102.70790 | 35069 ft | 516 kts | 108° |
| 2026-04-22 13:13 | 41.65157 | 102.79766 | 35072 ft | 516 kts | 108° |
| 2026-04-22 13:13 | 41.62660 | 102.88688 | 35085 ft | 514 kts | 108° |
| 2026-04-22 13:14 | 41.60160 | 102.97592 | 35084 ft | 515 kts | 108° |
| 2026-04-22 13:14 | 41.57647 | 103.06505 | 35077 ft | 515 kts | 108° |
| 2026-04-22 13:15 | 41.55113 | 103.15459 | 35084 ft | 516 kts | 108° |
| 2026-04-22 13:15 | 41.52579 | 103.24380 | 35087 ft | 515 kts | 108° |
| 2026-04-22 13:16 | 41.50048 | 103.33262 | 35084 ft | 516 kts | 108° |
| 2026-04-22 13:16 | 41.47489 | 103.42209 | 35086 ft | 516 kts | 108° |
| 2026-04-22 13:17 | 41.44948 | 103.51062 | 35094 ft | 516 kts | 108° |
| 2026-04-22 13:17 | 41.42373 | 103.60003 | 35100 ft | 517 kts | 108° |
| 2026-04-22 13:18 | 41.39808 | 103.68877 | 35090 ft | 517 kts | 109° |
| 2026-04-22 13:18 | 41.37231 | 103.77764 | 35098 ft | 516 kts | 109° |
| 2026-04-22 13:19 | 41.34639 | 103.86671 | 35096 ft | 516 kts | 109° |
| 2026-04-22 13:19 | 41.32044 | 103.95561 | 35096 ft | 517 kts | 109° |
| 2026-04-22 13:20 | 41.29450 | 104.04412 | 35098 ft | 517 kts | 109° |
| 2026-04-22 13:20 | 41.26839 | 104.13294 | 35094 ft | 518 kts | 109° |
| 2026-04-22 13:21 | 41.24220 | 104.22173 | 35100 ft | 518 kts | 109° |
| 2026-04-22 13:21 | 41.21597 | 104.31033 | 35096 ft | 518 kts | 109° |
| 2026-04-22 13:22 | 41.18965 | 104.39894 | 35100 ft | 518 kts | 109° |
| 2026-04-22 13:22 | 41.16319 | 104.48774 | 35105 ft | 517 kts | 109° |
| 2026-04-22 13:23 | 41.13677 | 104.57607 | 35112 ft | 518 kts | 109° |
| 2026-04-22 13:23 | 41.11040 | 104.66398 | 35115 ft | 517 kts | 110° |
| 2026-04-22 13:24 | 41.08293 | 104.75169 | 35122 ft | 518 kts | 113° |
| 2026-04-22 13:24 | 41.05327 | 104.83894 | 35122 ft | 518 kts | 113° |
| 2026-04-22 13:25 | 41.02391 | 104.92524 | 35138 ft | 518 kts | 113° |
| 2026-04-22 13:25 | 40.99435 | 105.01211 | 35138 ft | 518 kts | 113° |
| 2026-04-22 13:26 | 40.96471 | 105.09911 | 35137 ft | 519 kts | 113° |
| 2026-04-22 13:26 | 40.93493 | 105.18630 | 35134 ft | 518 kts | 113° |
| 2026-04-22 13:27 | 40.90540 | 105.27254 | 35139 ft | 519 kts | 113° |
| 2026-04-22 13:27 | 40.87559 | 105.35935 | 35127 ft | 517 kts | 112° |
| 2026-04-22 13:28 | 40.84591 | 105.44554 | 35128 ft | 517 kts | 112° |
| 2026-04-22 13:28 | 40.81628 | 105.53134 | 35123 ft | 519 kts | 112° |
| 2026-04-22 13:29 | 40.78634 | 105.61777 | 35132 ft | 519 kts | 112° |
| 2026-04-22 13:29 | 40.75641 | 105.70388 | 35126 ft | 519 kts | 114° |
| 2026-04-22 13:30 | 40.72625 | 105.79042 | 35133 ft | 519 kts | 114° |
| 2026-04-22 13:30 | 40.69617 | 105.87647 | 35129 ft | 520 kts | 114° |
| 2026-04-22 13:31 | 40.66600 | 105.96251 | 35131 ft | 519 kts | 114° |
| 2026-04-22 13:31 | 40.63575 | 106.04850 | 35124 ft | 519 kts | 114° |
| 2026-04-22 13:32 | 40.60550 | 106.13425 | 35120 ft | 519 kts | 113° |
| 2026-04-22 13:32 | 40.57507 | 106.22026 | 35117 ft | 518 kts | 113° |
| 2026-04-22 13:33 | 40.54480 | 106.30553 | 35125 ft | 519 kts | 113° |
| 2026-04-22 13:33 | 40.51418 | 106.39157 | 35110 ft | 519 kts | 114° |
| 2026-04-22 13:34 | 40.48369 | 106.47697 | 35103 ft | 519 kts | 114° |
| 2026-04-22 13:34 | 40.45296 | 106.56280 | 35104 ft | 520 kts | 114° |
| 2026-04-22 13:35 | 40.42228 | 106.64821 | 35105 ft | 519 kts | 114° |
| 2026-04-22 13:35 | 40.39166 | 106.73321 | 35109 ft | 520 kts | 114° |
| 2026-04-22 13:36 | 40.36082 | 106.81858 | 35115 ft | 519 kts | 114° |
| 2026-04-22 13:36 | 40.33095 | 106.90481 | 35105 ft | 520 kts | 108° |
| 2026-04-22 13:37 | 40.31674 | 106.99617 | 35113 ft | 515 kts | 90° |
| 2026-04-22 13:37 | 40.32217 | 107.08850 | 35121 ft | 508 kts | 77° |
| 2026-04-22 13:38 | 40.33425 | 107.17963 | 35119 ft | 508 kts | 77° |
| 2026-04-22 13:38 | 40.35168 | 107.31590 | 35108 ft | 508 kts | 77° |
| 2026-04-22 13:39 | 40.36303 | 107.40711 | 35106 ft | 508 kts | 78° |
| 2026-04-22 13:39 | 40.37421 | 107.49830 | 35117 ft | 509 kts | 78° |
| 2026-04-22 13:40 | 40.38524 | 107.58932 | 35100 ft | 508 kts | 78° |
| 2026-04-22 13:40 | 40.39617 | 107.68031 | 35110 ft | 508 kts | 78° |
| 2026-04-22 13:41 | 40.40712 | 107.77216 | 35098 ft | 509 kts | 78° |
| 2026-04-22 13:41 | 40.41792 | 107.86352 | 35104 ft | 509 kts | 78° |
| 2026-04-22 13:42 | 40.42860 | 107.95462 | 35111 ft | 508 kts | 78° |
| 2026-04-22 13:42 | 40.43926 | 108.04622 | 35118 ft | 508 kts | 78° |
| 2026-04-22 13:43 | 40.44979 | 108.13753 | 35116 ft | 508 kts | 78° |
| 2026-04-22 13:43 | 40.46017 | 108.22821 | 35107 ft | 507 kts | 78° |
| 2026-04-22 13:44 | 40.47059 | 108.31990 | 35107 ft | 507 kts | 78° |
| 2026-04-22 13:44 | 40.48091 | 108.41129 | 35115 ft | 507 kts | 78° |
| 2026-04-22 13:45 | 40.49110 | 108.50227 | 35109 ft | 507 kts | 78° |
| 2026-04-22 13:45 | 40.50124 | 108.59347 | 35112 ft | 507 kts | 78° |
| 2026-04-22 13:46 | 40.51133 | 108.68484 | 35109 ft | 506 kts | 79° |
| 2026-04-22 13:46 | 40.52131 | 108.77596 | 35109 ft | 506 kts | 79° |
| 2026-04-22 13:47 | 40.53128 | 108.86761 | 35104 ft | 506 kts | 79° |
| 2026-04-22 13:47 | 40.54111 | 108.95873 | 35106 ft | 506 kts | 79° |
| 2026-04-22 13:48 | 40.55090 | 109.05003 | 35095 ft | 506 kts | 79° |
| 2026-04-22 13:48 | 40.56061 | 109.14141 | 35105 ft | 506 kts | 79° |
| 2026-04-22 13:49 | 40.57026 | 109.23285 | 35115 ft | 506 kts | 79° |
| 2026-04-22 13:49 | 40.57979 | 109.32394 | 35120 ft | 506 kts | 79° |
| 2026-04-22 13:50 | 40.58923 | 109.41481 | 35120 ft | 505 kts | 79° |
| 2026-04-22 13:50 | 40.59866 | 109.50637 | 35135 ft | 505 kts | 79° |
| 2026-04-22 13:51 | 40.60799 | 109.59766 | 35119 ft | 506 kts | 79° |
| 2026-04-22 13:51 | 40.61725 | 109.68896 | 35128 ft | 506 kts | 80° |
| 2026-04-22 13:52 | 40.62649 | 109.78085 | 35120 ft | 504 kts | 80° |
| 2026-04-22 13:52 | 40.63559 | 109.87196 | 35118 ft | 505 kts | 80° |
| 2026-04-22 13:53 | 40.64458 | 109.96327 | 35108 ft | 505 kts | 81° |
| 2026-04-22 13:53 | 40.64628 | 110.05556 | 35123 ft | 507 kts | 88° |
| 2026-04-22 13:54 | 40.64588 | 110.14801 | 35124 ft | 507 kts | 88° |
| 2026-04-22 13:54 | 40.64538 | 110.24070 | 35126 ft | 508 kts | 88° |
| 2026-04-22 13:55 | 40.64479 | 110.33364 | 35132 ft | 509 kts | 88° |
| 2026-04-22 13:55 | 40.64413 | 110.42584 | 35141 ft | 508 kts | 88° |
| 2026-04-22 13:56 | 40.64341 | 110.51851 | 35149 ft | 508 kts | 88° |
| 2026-04-22 13:56 | 40.64262 | 110.61141 | 35142 ft | 507 kts | 88° |
| 2026-04-22 13:57 | 40.64175 | 110.70411 | 35146 ft | 508 kts | 88° |
| 2026-04-22 13:57 | 40.64081 | 110.79707 | 35149 ft | 509 kts | 88° |
| 2026-04-22 13:58 | 40.63980 | 110.88937 | 35149 ft | 508 kts | 88° |
| 2026-04-22 13:58 | 40.63871 | 110.98221 | 35154 ft | 509 kts | 88° |
| 2026-04-22 13:59 | 40.63755 | 111.07517 | 35144 ft | 508 kts | 88° |
| 2026-04-22 13:59 | 40.63631 | 111.16764 | 35141 ft | 508 kts | 88° |
| 2026-04-22 14:00 | 40.63501 | 111.26012 | 35130 ft | 509 kts | 88° |
| 2026-04-22 14:00 | 40.63362 | 111.35324 | 35130 ft | 510 kts | 88° |
| 2026-04-22 14:01 | 40.63216 | 111.44606 | 35131 ft | 508 kts | 88° |
| 2026-04-22 14:01 | 40.63064 | 111.53833 | 35129 ft | 510 kts | 88° |
| 2026-04-22 14:02 | 40.62902 | 111.63139 | 35120 ft | 509 kts | 88° |
| 2026-04-22 14:02 | 40.62734 | 111.72487 | 35110 ft | 510 kts | 89° |
| 2026-04-22 14:03 | 40.62558 | 111.81770 | 35117 ft | 511 kts | 89° |
| 2026-04-22 14:03 | 40.62378 | 111.91052 | 35123 ft | 509 kts | 89° |
| 2026-04-22 14:04 | 40.62200 | 112.00337 | 35132 ft | 509 kts | 89° |
| 2026-04-22 14:04 | 40.61990 | 112.09654 | 35148 ft | 510 kts | 89° |
| 2026-04-22 14:05 | 40.61782 | 112.18917 | 35146 ft | 511 kts | 89° |
| 2026-04-22 14:06 | 40.61453 | 112.32918 | 35168 ft | 511 kts | 89° |
| 2026-04-22 14:06 | 40.61226 | 112.42213 | 35157 ft | 512 kts | 89° |
| 2026-04-22 14:07 | 40.60970 | 112.51537 | 35153 ft | 512 kts | 91° |
| 2026-04-22 14:07 | 40.60438 | 112.60825 | 35144 ft | 511 kts | 92° |
| 2026-04-22 14:08 | 40.59886 | 112.70140 | 35144 ft | 513 kts | 93° |
| 2026-04-22 14:08 | 40.59203 | 112.79444 | 35145 ft | 513 kts | 95° |
| 2026-04-22 14:09 | 40.58499 | 112.88750 | 35158 ft | 512 kts | 93° |
| 2026-04-22 14:09 | 40.57882 | 112.98054 | 35135 ft | 512 kts | 94° |
| 2026-04-22 14:10 | 40.57256 | 113.07397 | 35130 ft | 512 kts | 94° |
| 2026-04-22 14:10 | 40.56621 | 113.16747 | 35137 ft | 513 kts | 94° |
| 2026-04-22 14:11 | 40.55983 | 113.26032 | 35134 ft | 514 kts | 94° |
| 2026-04-22 14:11 | 40.55334 | 113.35378 | 35131 ft | 514 kts | 94° |
| 2026-04-22 14:11 | 40.55004 | 113.40082 | 35009 ft | 519 kts | 94° |
| 2026-04-22 14:12 | 40.54675 | 113.44761 | 34791 ft | 517 kts | 94° |
| 2026-04-22 14:12 | 40.54341 | 113.49460 | 34557 ft | 514 kts | 94° |
| 2026-04-22 14:12 | 40.54010 | 113.54096 | 34306 ft | 514 kts | 94° |
| 2026-04-22 14:12 | 40.53673 | 113.58793 | 34032 ft | 515 kts | 94° |
| 2026-04-22 14:13 | 40.53338 | 113.63439 | 33783 ft | 515 kts | 94° |
| 2026-04-22 14:13 | 40.52999 | 113.68116 | 33488 ft | 514 kts | 94° |
| 2026-04-22 14:13 | 40.52661 | 113.72743 | 33128 ft | 517 kts | 94° |
| 2026-04-22 14:13 | 40.52317 | 113.77434 | 32733 ft | 517 kts | 94° |
| 2026-04-22 14:14 | 40.51969 | 113.82154 | 32289 ft | 518 kts | 94° |
| 2026-04-22 14:14 | 40.51622 | 113.86824 | 31842 ft | 513 kts | 94° |
| 2026-04-22 14:14 | 40.51276 | 113.91446 | 31340 ft | 508 kts | 94° |
| 2026-04-22 14:14 | 40.50933 | 113.96027 | 30795 ft | 504 kts | 94° |
| 2026-04-22 14:15 | 40.50595 | 114.00540 | 30243 ft | 499 kts | 93° |
| 2026-04-22 14:15 | 40.50379 | 114.05106 | 29677 ft | 494 kts | 91° |
| 2026-04-22 14:15 | 40.50208 | 114.09549 | 29119 ft | 490 kts | 91° |
| 2026-04-22 14:15 | 40.50035 | 114.13989 | 28563 ft | 486 kts | 91° |
| 2026-04-22 14:16 | 40.49858 | 114.18366 | 28002 ft | 483 kts | 91° |
| 2026-04-22 14:16 | 40.49676 | 114.22791 | 27433 ft | 479 kts | 91° |
| 2026-04-22 14:16 | 40.49495 | 114.27095 | 26883 ft | 477 kts | 91° |
| 2026-04-22 14:16 | 40.49309 | 114.31428 | 26320 ft | 473 kts | 91° |
| 2026-04-22 14:17 | 40.49122 | 114.35738 | 25761 ft | 470 kts | 91° |
| 2026-04-22 14:17 | 40.48936 | 114.39977 | 25198 ft | 467 kts | 91° |
| 2026-04-22 14:17 | 40.48748 | 114.44200 | 24616 ft | 463 kts | 91° |
| 2026-04-22 14:17 | 40.48560 | 114.48377 | 24037 ft | 459 kts | 91° |
| 2026-04-22 14:18 | 40.48371 | 114.52531 | 23463 ft | 455 kts | 91° |
| 2026-04-22 14:18 | 40.48184 | 114.56623 | 22900 ft | 452 kts | 91° |
| 2026-04-22 14:18 | 40.47994 | 114.60731 | 22332 ft | 448 kts | 91° |
| 2026-04-22 14:18 | 40.47807 | 114.64757 | 21775 ft | 445 kts | 91° |
| 2026-04-22 14:19 | 40.47617 | 114.68784 | 21205 ft | 441 kts | 92° |
| 2026-04-22 14:19 | 40.47429 | 114.72759 | 20639 ft | 438 kts | 92° |
| 2026-04-22 14:19 | 40.47240 | 114.76734 | 20148 ft | 432 kts | 92° |
| 2026-04-22 14:19 | 40.47051 | 114.80650 | 19761 ft | 426 kts | 92° |
| 2026-04-22 14:20 | 40.46678 | 114.88347 | 19184 ft | 426 kts | 92° |
| 2026-04-22 14:20 | 40.46489 | 114.92210 | 18906 ft | 423 kts | 92° |
| 2026-04-22 14:20 | 40.46298 | 114.96066 | 18611 ft | 421 kts | 92° |
| 2026-04-22 14:21 | 40.45919 | 115.03669 | 18027 ft | 418 kts | 92° |
| 2026-04-22 14:21 | 40.45728 | 115.07455 | 17728 ft | 416 kts | 92° |
| 2026-04-22 14:22 | 40.45345 | 115.14979 | 17162 ft | 413 kts | 92° |
| 2026-04-22 14:22 | 40.45152 | 115.18739 | 16856 ft | 411 kts | 92° |
| 2026-04-22 14:22 | 40.44765 | 115.26186 | 16307 ft | 409 kts | 92° |
| 2026-04-22 14:23 | 40.44572 | 115.29879 | 16022 ft | 407 kts | 92° |
| 2026-04-22 14:23 | 40.44379 | 115.33540 | 15751 ft | 404 kts | 92° |
| 2026-04-22 14:23 | 40.44185 | 115.37219 | 15484 ft | 404 kts | 92° |
| 2026-04-22 14:23 | 40.43987 | 115.40922 | 15173 ft | 402 kts | 92° |
| 2026-04-22 14:24 | 40.43792 | 115.44562 | 14852 ft | 399 kts | 92° |
| 2026-04-22 14:24 | 40.43599 | 115.48134 | 14499 ft | 392 kts | 92° |
| 2026-04-22 14:24 | 40.43408 | 115.51650 | 14015 ft | 389 kts | 92° |
| 2026-04-22 14:24 | 40.43223 | 115.55207 | 13538 ft | 387 kts | 92° |
| 2026-04-22 14:25 | 40.43065 | 115.58737 | 13322 ft | 394 kts | 91° |
| 2026-04-22 14:25 | 40.42905 | 115.62296 | 13082 ft | 394 kts | 92° |
| 2026-04-22 14:25 | 40.42741 | 115.65887 | 12819 ft | 390 kts | 92° |
| 2026-04-22 14:25 | 40.42577 | 115.69430 | 12546 ft | 389 kts | 92° |
| 2026-04-22 14:26 | 40.42415 | 115.72925 | 12274 ft | 388 kts | 93° |
| 2026-04-22 14:26 | 40.42248 | 115.76473 | 11987 ft | 383 kts | 93° |
| 2026-04-22 14:26 | 40.42088 | 115.79866 | 11728 ft | 373 kts | 93° |
| 2026-04-22 14:26 | 40.41927 | 115.83230 | 11439 ft | 362 kts | 93° |
| 2026-04-22 14:27 | 40.41773 | 115.86454 | 11202 ft | 348 kts | 93° |
| 2026-04-22 14:27 | 40.41622 | 115.89578 | 10970 ft | 336 kts | 93° |
| 2026-04-22 14:27 | 40.41478 | 115.92561 | 10748 ft | 324 kts | 93° |
| 2026-04-22 14:27 | 40.41337 | 115.95458 | 10498 ft | 313 kts | 93° |
| 2026-04-22 14:28 | 40.41202 | 115.98219 | 10293 ft | 302 kts | 93° |
| 2026-04-22 14:28 | 40.41066 | 116.00986 | 10122 ft | 302 kts | 93° |
| 2026-04-22 14:28 | 40.40933 | 116.03678 | 9888 ft | 297 kts | 93° |
| 2026-04-22 14:28 | 40.40799 | 116.06359 | 9644 ft | 292 kts | 94° |
| 2026-04-22 14:29 | 40.40666 | 116.09027 | 9411 ft | 287 kts | 94° |
| 2026-04-22 14:29 | 40.40537 | 116.11604 | 9193 ft | 285 kts | 94° |
| 2026-04-22 14:29 | 40.40403 | 116.14248 | 8975 ft | 286 kts | 94° |
| 2026-04-22 14:29 | 40.40287 | 116.16836 | 8737 ft | 284 kts | 91° |
| 2026-04-22 14:30 | 40.40324 | 116.19395 | 8521 ft | 283 kts | 89° |
| 2026-04-22 14:30 | 40.40380 | 116.21988 | 8287 ft | 281 kts | 89° |
| 2026-04-22 14:30 | 40.40416 | 116.24522 | 8063 ft | 280 kts | 90° |
| 2026-04-22 14:30 | 40.40442 | 116.27060 | 7838 ft | 278 kts | 90° |
| 2026-04-22 14:31 | 40.40465 | 116.29564 | 7615 ft | 274 kts | 90° |
| 2026-04-22 14:31 | 40.40487 | 116.32067 | 7389 ft | 269 kts | 91° |
| 2026-04-22 14:31 | 40.40508 | 116.34478 | 7162 ft | 265 kts | 91° |
| 2026-04-22 14:31 | 40.40528 | 116.36875 | 6955 ft | 260 kts | 91° |
| 2026-04-22 14:32 | 40.40547 | 116.39211 | 6748 ft | 256 kts | 92° |
| 2026-04-22 14:32 | 40.40565 | 116.41513 | 6545 ft | 251 kts | 92° |
| 2026-04-22 14:32 | 40.40523 | 116.43772 | 6324 ft | 244 kts | 105° |
| 2026-04-22 14:32 | 40.39864 | 116.45738 | 6126 ft | 233 kts | 130° |
| 2026-04-22 14:33 | 40.38840 | 116.47347 | 5958 ft | 226 kts | 136° |
| 2026-04-22 14:33 | 40.37774 | 116.48808 | 5767 ft | 216 kts | 137° |
| 2026-04-22 14:33 | 40.36753 | 116.50174 | 5587 ft | 206 kts | 138° |
| 2026-04-22 14:33 | 40.35777 | 116.51477 | 5420 ft | 195 kts | 138° |
| 2026-04-22 14:34 | 40.34836 | 116.52734 | 5258 ft | 186 kts | 138° |
| 2026-04-22 14:34 | 40.33960 | 116.53903 | 5108 ft | 180 kts | 138° |
| 2026-04-22 14:34 | 40.33084 | 116.55070 | 4962 ft | 178 kts | 138° |
| 2026-04-22 14:34 | 40.32176 | 116.56278 | 4828 ft | 193 kts | 137° |
| 2026-04-22 14:35 | 40.31178 | 116.57496 | 4656 ft | 201 kts | 145° |
| 2026-04-22 14:35 | 40.29903 | 116.58184 | 4414 ft | 205 kts | 175° |
| 2026-04-22 14:35 | 40.28487 | 116.58264 | 4130 ft | 202 kts | 178° |
| 2026-04-22 14:35 | 40.27103 | 116.58402 | 3857 ft | 196 kts | 175° |
| 2026-04-22 14:36 | 40.25753 | 116.58607 | 3584 ft | 192 kts | 173° |
| 2026-04-22 14:36 | 40.24442 | 116.58824 | 3318 ft | 187 kts | 173° |
| 2026-04-22 14:36 | 40.23176 | 116.59033 | 3062 ft | 183 kts | 173° |
| 2026-04-22 14:36 | 40.21930 | 116.59235 | 2811 ft | 179 kts | 173° |
| 2026-04-22 14:37 | 40.20726 | 116.59427 | 2560 ft | 166 kts | 172° |
| 2026-04-22 14:37 | 40.19624 | 116.59602 | 2336 ft | 155 kts | 172° |
| 2026-04-22 14:37 | 40.18584 | 116.59767 | 2118 ft | 146 kts | 171° |
| 2026-04-22 14:37 | 40.17588 | 116.59925 | 1912 ft | 141 kts | 171° |
| 2026-04-22 14:38 | 40.16620 | 116.60078 | 1713 ft | 141 kts | 171° |
| 2026-04-22 14:38 | 40.15643 | 116.60232 | 1504 ft | 140 kts | 171° |
| 2026-04-22 14:38 | 40.14659 | 116.60387 | 1305 ft | 140 kts | 170° |
| 2026-04-22 14:38 | 40.13699 | 116.60538 | 1097 ft | 137 kts | 171° |
| 2026-04-22 14:39 | 40.12745 | 116.60689 | 897 ft | 138 kts | 171° |
| 2026-04-22 14:39 | 40.11803 | 116.60839 | 678 ft | 139 kts | 172° |
| 2026-04-22 14:39 | 40.10843 | 116.60992 | 459 ft | 139 kts | 170° |
| 2026-04-22 14:40 | 40.09247 | 116.61248 | 157 ft | 138 kts | 171° |
| 2026-04-22 14:40 | 40.08100 | 116.61427 | 131 ft | 101 kts | 172° |
| 2026-04-22 14:40 | 40.07521 | 116.61519 | 131 ft | 66 kts | 170° |
| 2026-04-22 14:40 | 40.07188 | 116.61572 | 131 ft | 31 kts | 174° |
| 2026-04-22 14:41 | 40.07064 | 116.61580 | 131 ft | 12 kts | 179° |
| 2026-04-22 14:41 | 40.06980 | 116.61575 | 131 ft | 11 kts | 188° |
| 2026-04-22 14:41 | 40.06902 | 116.61552 | 131 ft | 11 kts | 195° |
| 2026-04-22 14:41 | 40.06826 | 116.61518 | 131 ft | 11 kts | 200° |
| 2026-04-22 14:42 | 40.06755 | 116.61481 | 131 ft | 10 kts | 203° |
| 2026-04-22 14:42 | 40.06686 | 116.61441 | 131 ft | 10 kts | 204° |
| 2026-04-22 14:42 | 40.06619 | 116.61414 | 131 ft | 10 kts | 187° |
| 2026-04-22 14:42 | 40.06551 | 116.61419 | 131 ft | 9 kts | 173° |
| 2026-04-22 14:43 | 40.06484 | 116.61430 | 131 ft | 9 kts | 173° |
| 2026-04-22 14:43 | 40.06421 | 116.61430 | 131 ft | 8 kts | 199° |
| 2026-04-22 14:43 | 40.06372 | 116.61384 | 131 ft | 8 kts | 231° |
| 2026-04-22 14:43 | 40.06359 | 116.61314 | 131 ft | 7 kts | 263° |
| 2026-04-22 14:44 | 40.06352 | 116.61232 | 131 ft | 12 kts | 263° |
| 2026-04-22 14:44 | 40.06340 | 116.61088 | 131 ft | 19 kts | 262° |
| 2026-04-22 14:44 | 40.06322 | 116.60892 | 131 ft | 22 kts | 263° |
| 2026-04-22 14:44 | 40.06305 | 116.60702 | 131 ft | 20 kts | 263° |
| 2026-04-22 14:45 | 40.06283 | 116.60546 | 131 ft | 10 kts | 233° |
| 2026-04-22 14:45 | 40.06215 | 116.60529 | 131 ft | 10 kts | 170° |
| 2026-04-22 14:45 | 40.06144 | 116.60544 | 131 ft | 10 kts | 171° |
| 2026-04-22 14:45 | 40.06077 | 116.60557 | 131 ft | 9 kts | 172° |
| 2026-04-22 14:46 | 40.06011 | 116.60568 | 131 ft | 9 kts | 172° |
| 2026-04-22 14:46 | 40.05949 | 116.60576 | 131 ft | 8 kts | 175° |
| 2026-04-22 14:46 | 40.05889 | 116.60579 | 131 ft | 8 kts | 176° |
| 2026-04-22 14:46 | 40.05830 | 116.60585 | 131 ft | 8 kts | 172° |
| 2026-04-22 14:47 | 40.05775 | 116.60594 | 131 ft | 8 kts | 172° |
| 2026-04-22 14:47 | 40.05698 | 116.60606 | 131 ft | 14 kts | 173° |
| 2026-04-22 14:47 | 40.05600 | 116.60613 | 131 ft | 13 kts | 185° |
| 2026-04-22 14:47 | 40.05515 | 116.60572 | 131 ft | 12 kts | 211° |
| 2026-04-22 14:48 | 40.05461 | 116.60526 | 131 ft | 6 kts | 190° |
| 2026-04-22 14:48 | 40.05425 | 116.60535 | 131 ft | 3 kts | 154° |
| 2026-04-22 14:48 | 40.05412 | 116.60547 | 131 ft | 1 kts | 141° |
| 2026-04-22 14:48 | 40.05404 | 116.60555 | 131 ft | 1 kts | 142° |
| 2026-04-22 14:49 | 40.05395 | 116.60564 | 131 ft | 1 kts | 142° |
| 2026-04-22 14:49 | 40.05386 | 116.60573 | 131 ft | 0 kts | 142° |